sensor_id;sensor_type;location;lat;lon;timestamp;pressure;altitude;pressure_sealevel;temperature;humidity
65614;BME280;52283;49.292;10.572;2023-07-31T00:01:28;96524.13;;;15.53;100.00
65614;BME280;52283;49.292;10.572;2023-07-31T00:03:54;96523.44;;;15.47;100.00
65614;BME280;52283;49.292;10.572;2023-07-31T00:06:22;96520.31;;;15.51;100.00
65614;BME280;52283;49.292;10.572;2023-07-31T00:08:49;96520.00;;;15.54;100.00
65614;BME280;52283;49.292;10.572;2023-07-31T00:11:15;96514.31;;;15.60;100.00
65614;BME280;52283;49.292;10.572;2023-07-31T00:13:42;96503.56;;;15.59;100.00
65614;BME280;52283;49.292;10.572;2023-07-31T00:16:08;96508.16;;;15.62;100.00
65614;BME280;52283;49.292;10.572;2023-07-31T00:18:35;96511.97;;;15.64;100.00
65614;BME280;52283;49.292;10.572;2023-07-31T00:21:01;96511.25;;;15.58;100.00
65614;BME280;52283;49.292;10.572;2023-07-31T00:23:29;96503.63;;;15.72;100.00
65614;BME280;52283;49.292;10.572;2023-07-31T00:25:55;96505.56;;;15.64;100.00
65614;BME280;52283;49.292;10.572;2023-07-31T00:28:22;96512.19;;;15.66;100.00
65614;BME280;52283;49.292;10.572;2023-07-31T00:30:48;96509.38;;;15.66;100.00
65614;BME280;52283;49.292;10.572;2023-07-31T00:33:15;96504.50;;;15.67;100.00
65614;BME280;52283;49.292;10.572;2023-07-31T00:35:41;96503.72;;;15.66;100.00
65614;BME280;52283;49.292;10.572;2023-07-31T00:38:07;96504.50;;;15.67;100.00
65614;BME280;52283;49.292;10.572;2023-07-31T00:40:36;96502.88;;;15.71;100.00
65614;BME280;52283;49.292;10.572;2023-07-31T00:43:03;96504.84;;;15.76;100.00
65614;BME280;52283;49.292;10.572;2023-07-31T00:45:29;96503.63;;;15.72;100.00
65614;BME280;52283;49.292;10.572;2023-07-31T00:47:56;96509.06;;;15.70;100.00
65614;BME280;52283;49.292;10.572;2023-07-31T00:50:24;96505.16;;;15.73;100.00
65614;BME280;52283;49.292;10.572;2023-07-31T00:52:51;96513.72;;;15.80;100.00
65614;BME280;52283;49.292;10.572;2023-07-31T00:55:18;96500.09;;;15.84;100.00
65614;BME280;52283;49.292;10.572;2023-07-31T00:57:46;96493.38;;;15.88;100.00
65614;BME280;52283;49.292;10.572;2023-07-31T01:00:12;96490.56;;;15.88;100.00
65614;BME280;52283;49.292;10.572;2023-07-31T01:02:38;96487.97;;;15.90;100.00
65614;BME280;52283;49.292;10.572;2023-07-31T01:05:05;96494.06;;;16.07;100.00
65614;BME280;52283;49.292;10.572;2023-07-31T01:07:42;96489.53;;;16.04;100.00
65614;BME280;52283;49.292;10.572;2023-07-31T01:10:16;96485.25;;;15.97;100.00
65614;BME280;52283;49.292;10.572;2023-07-31T01:12:47;96486.44;;;15.89;100.00
65614;BME280;52283;49.292;10.572;2023-07-31T01:15:14;96482.88;;;16.01;100.00
65614;BME280;52283;49.292;10.572;2023-07-31T01:17:43;96493.28;;;15.93;100.00
65614;BME280;52283;49.292;10.572;2023-07-31T01:20:12;96494.63;;;16.05;100.00
65614;BME280;52283;49.292;10.572;2023-07-31T01:22:54;96493.19;;;15.99;100.00
65614;BME280;52283;49.292;10.572;2023-07-31T01:25:41;96496.31;;;15.95;100.00
65614;BME280;52283;49.292;10.572;2023-07-31T01:28:12;96484.06;;;15.93;100.00
65614;BME280;52283;49.292;10.572;2023-07-31T01:30:42;96488.09;;;15.97;100.00
65614;BME280;52283;49.292;10.572;2023-07-31T01:33:09;96493.59;;;15.90;100.00
65614;BME280;52283;49.292;10.572;2023-07-31T01:35:37;96483.63;;;15.89;100.00
65614;BME280;52283;49.292;10.572;2023-07-31T01:38:04;96482.56;;;15.92;100.00
65614;BME280;52283;49.292;10.572;2023-07-31T01:40:31;96469.75;;;15.91;100.00
65614;BME280;52283;49.292;10.572;2023-07-31T01:42:59;96470.75;;;15.93;100.00
65614;BME280;52283;49.292;10.572;2023-07-31T01:45:25;96469.22;;;15.92;100.00
65614;BME280;52283;49.292;10.572;2023-07-31T01:47:52;96483.75;;;15.83;100.00
65614;BME280;52283;49.292;10.572;2023-07-31T01:50:18;96471.03;;;15.76;100.00
65614;BME280;52283;49.292;10.572;2023-07-31T01:52:44;96465.72;;;15.73;100.00
65614;BME280;52283;49.292;10.572;2023-07-31T01:55:11;96473.41;;;15.72;100.00
65614;BME280;52283;49.292;10.572;2023-07-31T01:57:37;96468.19;;;15.63;100.00
65614;BME280;52283;49.292;10.572;2023-07-31T02:00:07;96465.19;;;15.55;100.00
65614;BME280;52283;49.292;10.572;2023-07-31T02:02:33;96467.78;;;15.53;100.00
65614;BME280;52283;49.292;10.572;2023-07-31T02:05:00;96468.22;;;15.57;100.00
65614;BME280;52283;49.292;10.572;2023-07-31T02:07:26;96457.59;;;15.50;100.00
65614;BME280;52283;49.292;10.572;2023-07-31T02:09:53;96441.19;;;15.36;100.00
65614;BME280;52283;49.292;10.572;2023-07-31T02:12:19;96439.28;;;15.44;100.00
65614;BME280;52283;49.292;10.572;2023-07-31T02:14:46;96437.63;;;15.35;100.00
65614;BME280;52283;49.292;10.572;2023-07-31T02:17:13;96428.00;;;15.12;100.00
65614;BME280;52283;49.292;10.572;2023-07-31T02:19:40;96441.00;;;15.15;100.00
65614;BME280;52283;49.292;10.572;2023-07-31T02:22:06;96432.53;;;15.02;100.00
65614;BME280;52283;49.292;10.572;2023-07-31T02:24:33;96432.56;;;14.96;100.00
65614;BME280;52283;49.292;10.572;2023-07-31T02:26:59;96426.03;;;15.07;100.00
65614;BME280;52283;49.292;10.572;2023-07-31T02:29:26;96429.16;;;15.03;100.00
65614;BME280;52283;49.292;10.572;2023-07-31T02:31:52;96432.81;;;14.98;100.00
65614;BME280;52283;49.292;10.572;2023-07-31T02:34:20;96436.00;;;15.08;100.00
65614;BME280;52283;49.292;10.572;2023-07-31T02:36:46;96433.63;;;15.12;100.00
65614;BME280;52283;49.292;10.572;2023-07-31T02:39:13;96442.06;;;15.12;100.00
65614;BME280;52283;49.292;10.572;2023-07-31T02:41:39;96433.09;;;15.13;100.00
65614;BME280;52283;49.292;10.572;2023-07-31T02:44:06;96437.13;;;14.99;100.00
65614;BME280;52283;49.292;10.572;2023-07-31T02:46:32;96435.56;;;15.04;100.00
65614;BME280;52283;49.292;10.572;2023-07-31T02:48:58;96431.75;;;15.01;100.00
65614;BME280;52283;49.292;10.572;2023-07-31T02:51:26;96428.78;;;14.93;100.00
65614;BME280;52283;49.292;10.572;2023-07-31T02:53:53;96432.28;;;15.00;100.00
65614;BME280;52283;49.292;10.572;2023-07-31T02:56:19;96422.09;;;14.97;100.00
65614;BME280;52283;49.292;10.572;2023-07-31T02:58:46;96429.84;;;14.90;100.00
65614;BME280;52283;49.292;10.572;2023-07-31T03:01:12;96424.13;;;14.96;100.00
65614;BME280;52283;49.292;10.572;2023-07-31T03:03:41;96423.91;;;14.94;100.00
65614;BME280;52283;49.292;10.572;2023-07-31T03:06:07;96427.22;;;14.79;100.00
65614;BME280;52283;49.292;10.572;2023-07-31T03:08:35;96427.25;;;14.92;100.00
65614;BME280;52283;49.292;10.572;2023-07-31T03:11:01;96423.69;;;14.92;100.00
65614;BME280;52283;49.292;10.572;2023-07-31T03:13:28;96422.72;;;14.89;100.00
65614;BME280;52283;49.292;10.572;2023-07-31T03:15:54;96416.00;;;14.92;100.00
65614;BME280;52283;49.292;10.572;2023-07-31T03:18:21;96418.44;;;15.02;100.00
65614;BME280;52283;49.292;10.572;2023-07-31T03:20:47;96420.34;;;14.93;100.00
65614;BME280;52283;49.292;10.572;2023-07-31T03:23:13;96404.00;;;14.92;100.00
65614;BME280;52283;49.292;10.572;2023-07-31T03:25:55;96407.03;;;14.94;100.00
65614;BME280;52283;49.292;10.572;2023-07-31T03:28:21;96409.16;;;15.07;100.00
65614;BME280;52283;49.292;10.572;2023-07-31T03:30:48;96402.44;;;15.10;100.00
65614;BME280;52283;49.292;10.572;2023-07-31T03:33:14;96402.09;;;15.00;100.00
65614;BME280;52283;49.292;10.572;2023-07-31T03:35:41;96397.84;;;14.93;100.00
65614;BME280;52283;49.292;10.572;2023-07-31T03:38:07;96399.78;;;14.99;100.00
65614;BME280;52283;49.292;10.572;2023-07-31T03:40:33;96399.19;;;15.06;100.00
65614;BME280;52283;49.292;10.572;2023-07-31T03:43:01;96403.16;;;14.97;100.00
65614;BME280;52283;49.292;10.572;2023-07-31T03:45:28;96404.22;;;14.94;100.00
65614;BME280;52283;49.292;10.572;2023-07-31T03:47:54;96409.84;;;14.94;100.00
65614;BME280;52283;49.292;10.572;2023-07-31T03:50:21;96405.28;;;14.91;100.00
65614;BME280;52283;49.292;10.572;2023-07-31T03:52:47;96411.00;;;14.85;100.00
65614;BME280;52283;49.292;10.572;2023-07-31T03:55:14;96408.41;;;14.87;100.00
65614;BME280;52283;49.292;10.572;2023-07-31T03:57:40;96421.94;;;14.89;100.00
65614;BME280;52283;49.292;10.572;2023-07-31T04:00:09;96411.44;;;14.89;100.00
65614;BME280;52283;49.292;10.572;2023-07-31T04:02:36;96420.44;;;14.88;100.00
65614;BME280;52283;49.292;10.572;2023-07-31T04:05:03;96426.06;;;14.88;100.00
65614;BME280;52283;49.292;10.572;2023-07-31T04:07:29;96422.41;;;14.74;100.00
65614;BME280;52283;49.292;10.572;2023-07-31T04:09:57;96424.47;;;14.74;100.00
65614;BME280;52283;49.292;10.572;2023-07-31T04:12:23;96431.38;;;14.73;100.00
65614;BME280;52283;49.292;10.572;2023-07-31T04:14:49;96430.03;;;14.79;100.00
65614;BME280;52283;49.292;10.572;2023-07-31T04:17:18;96430.31;;;14.76;100.00
65614;BME280;52283;49.292;10.572;2023-07-31T04:19:45;96434.09;;;14.78;100.00
65614;BME280;52283;49.292;10.572;2023-07-31T04:22:11;96426.38;;;14.84;100.00
65614;BME280;52283;49.292;10.572;2023-07-31T04:24:37;96418.59;;;14.72;100.00
65614;BME280;52283;49.292;10.572;2023-07-31T04:27:04;96415.47;;;14.75;100.00
65614;BME280;52283;49.292;10.572;2023-07-31T04:29:31;96414.66;;;14.80;100.00
65614;BME280;52283;49.292;10.572;2023-07-31T04:31:57;96410.78;;;14.83;100.00
65614;BME280;52283;49.292;10.572;2023-07-31T04:34:25;96398.91;;;14.90;100.00
65614;BME280;52283;49.292;10.572;2023-07-31T04:36:51;96405.38;;;14.85;100.00
65614;BME280;52283;49.292;10.572;2023-07-31T04:39:18;96395.41;;;14.84;100.00
65614;BME280;52283;49.292;10.572;2023-07-31T04:41:44;96396.53;;;14.94;100.00
65614;BME280;52283;49.292;10.572;2023-07-31T04:44:11;96390.69;;;14.92;100.00
65614;BME280;52283;49.292;10.572;2023-07-31T04:46:37;96394.09;;;15.04;100.00
65614;BME280;52283;49.292;10.572;2023-07-31T04:49:04;96390.13;;;15.13;100.00
65614;BME280;52283;49.292;10.572;2023-07-31T04:51:31;96395.31;;;15.09;100.00
65614;BME280;52283;49.292;10.572;2023-07-31T04:53:58;96392.88;;;15.32;100.00
65614;BME280;52283;49.292;10.572;2023-07-31T04:56:24;96388.13;;;15.40;100.00
65614;BME280;52283;49.292;10.572;2023-07-31T04:58:51;96388.25;;;15.34;100.00
65614;BME280;52283;49.292;10.572;2023-07-31T05:01:17;96385.16;;;15.51;100.00
65614;BME280;52283;49.292;10.572;2023-07-31T05:03:44;96379.25;;;15.68;100.00
65614;BME280;52283;49.292;10.572;2023-07-31T05:06:10;96382.28;;;15.70;100.00
65614;BME280;52283;49.292;10.572;2023-07-31T05:08:38;96372.97;;;15.75;100.00
65614;BME280;52283;49.292;10.572;2023-07-31T05:11:05;96382.31;;;15.83;100.00
65614;BME280;52283;49.292;10.572;2023-07-31T05:13:31;96383.38;;;15.80;100.00
65614;BME280;52283;49.292;10.572;2023-07-31T05:15:58;96386.94;;;15.80;100.00
65614;BME280;52283;49.292;10.572;2023-07-31T05:18:24;96385.75;;;15.76;100.00
65614;BME280;52283;49.292;10.572;2023-07-31T05:20:51;96392.91;;;15.90;100.00
65614;BME280;52283;49.292;10.572;2023-07-31T05:23:17;96407.31;;;16.00;100.00
65614;BME280;52283;49.292;10.572;2023-07-31T05:25:45;96398.56;;;16.03;100.00
65614;BME280;52283;49.292;10.572;2023-07-31T05:28:12;96410.91;;;16.13;100.00
65614;BME280;52283;49.292;10.572;2023-07-31T05:30:38;96406.25;;;16.03;100.00
65614;BME280;52283;49.292;10.572;2023-07-31T05:33:05;96402.47;;;16.13;100.00
65614;BME280;52283;49.292;10.572;2023-07-31T05:35:31;96405.84;;;16.25;100.00
65614;BME280;52283;49.292;10.572;2023-07-31T05:37:58;96396.28;;;16.15;100.00
65614;BME280;52283;49.292;10.572;2023-07-31T05:40:24;96395.31;;;16.26;100.00
65614;BME280;52283;49.292;10.572;2023-07-31T05:42:52;96388.16;;;16.25;100.00
65614;BME280;52283;49.292;10.572;2023-07-31T05:45:18;96382.06;;;16.47;100.00
65614;BME280;52283;49.292;10.572;2023-07-31T05:47:45;96375.75;;;16.54;100.00
65614;BME280;52283;49.292;10.572;2023-07-31T05:50:11;96379.88;;;16.53;100.00
65614;BME280;52283;49.292;10.572;2023-07-31T05:52:39;96374.31;;;16.61;100.00
65614;BME280;52283;49.292;10.572;2023-07-31T05:55:06;96367.06;;;16.52;100.00
65614;BME280;52283;49.292;10.572;2023-07-31T05:57:33;96370.22;;;16.49;100.00
65614;BME280;52283;49.292;10.572;2023-07-31T06:00:01;96370.84;;;16.68;100.00
65614;BME280;52283;49.292;10.572;2023-07-31T06:02:27;96379.19;;;16.73;100.00
65614;BME280;52283;49.292;10.572;2023-07-31T06:04:57;96372.94;;;16.67;100.00
65614;BME280;52283;49.292;10.572;2023-07-31T06:07:24;96375.81;;;16.75;100.00
65614;BME280;52283;49.292;10.572;2023-07-31T06:09:50;96372.88;;;16.81;100.00
65614;BME280;52283;49.292;10.572;2023-07-31T06:12:17;96381.44;;;16.88;100.00
65614;BME280;52283;49.292;10.572;2023-07-31T06:14:44;96387.06;;;16.88;100.00
65614;BME280;52283;49.292;10.572;2023-07-31T06:17:11;96386.34;;;17.09;100.00
65614;BME280;52283;49.292;10.572;2023-07-31T06:19:38;96363.78;;;17.09;100.00
65614;BME280;52283;49.292;10.572;2023-07-31T06:22:05;96367.81;;;17.21;100.00
65614;BME280;52283;49.292;10.572;2023-07-31T06:24:32;96375.53;;;17.20;100.00
65614;BME280;52283;49.292;10.572;2023-07-31T06:26:58;96375.69;;;17.35;100.00
65614;BME280;52283;49.292;10.572;2023-07-31T06:29:25;96376.50;;;17.44;100.00
65614;BME280;52283;49.292;10.572;2023-07-31T06:31:51;96386.06;;;17.20;100.00
65614;BME280;52283;49.292;10.572;2023-07-31T06:34:19;96385.66;;;17.36;100.00
65614;BME280;52283;49.292;10.572;2023-07-31T06:36:45;96385.66;;;17.16;100.00
65614;BME280;52283;49.292;10.572;2023-07-31T06:39:12;96376.06;;;16.98;100.00
65614;BME280;52283;49.292;10.572;2023-07-31T06:41:38;96385.25;;;17.12;100.00
65614;BME280;52283;49.292;10.572;2023-07-31T06:44:05;96380.41;;;17.20;100.00
65614;BME280;52283;49.292;10.572;2023-07-31T06:46:31;96379.06;;;17.34;100.00
65614;BME280;52283;49.292;10.572;2023-07-31T06:48:58;96371.41;;;17.42;98.00
65614;BME280;52283;49.292;10.572;2023-07-31T06:51:26;96373.41;;;17.34;98.20
65614;BME280;52283;49.292;10.572;2023-07-31T06:53:52;96377.94;;;17.37;98.33
65614;BME280;52283;49.292;10.572;2023-07-31T06:56:18;96376.09;;;17.19;99.27
65614;BME280;52283;49.292;10.572;2023-07-31T06:58:45;96381.25;;;17.28;100.00
65614;BME280;52283;49.292;10.572;2023-07-31T07:01:11;96379.97;;;17.29;99.43
65614;BME280;52283;49.292;10.572;2023-07-31T07:03:38;96380.72;;;17.29;99.87
65614;BME280;52283;49.292;10.572;2023-07-31T07:06:04;96390.41;;;17.42;99.68
65614;BME280;52283;49.292;10.572;2023-07-31T07:08:32;96384.75;;;17.42;100.00
65614;BME280;52283;49.292;10.572;2023-07-31T07:10:58;96385.31;;;17.61;97.10
65614;BME280;52283;49.292;10.572;2023-07-31T07:13:25;96383.75;;;17.52;98.51
65614;BME280;52283;49.292;10.572;2023-07-31T07:15:51;96395.50;;;17.64;97.40
65614;BME280;52283;49.292;10.572;2023-07-31T07:18:18;96389.38;;;17.94;94.90
65614;BME280;52283;49.292;10.572;2023-07-31T07:20:46;96378.09;;;18.02;92.59
65614;BME280;52283;49.292;10.572;2023-07-31T07:23:13;96376.88;;;18.18;90.59
65614;BME280;52283;49.292;10.572;2023-07-31T07:25:41;96376.47;;;18.14;89.97
65614;BME280;52283;49.292;10.572;2023-07-31T07:28:08;96372.13;;;18.49;87.28
65614;BME280;52283;49.292;10.572;2023-07-31T07:30:34;96372.47;;;18.38;89.68
65614;BME280;52283;49.292;10.572;2023-07-31T07:33:01;96370.13;;;17.92;90.58
65614;BME280;52283;49.292;10.572;2023-07-31T07:35:27;96382.59;;;17.97;91.70
65614;BME280;52283;49.292;10.572;2023-07-31T07:37:54;96375.97;;;17.94;90.91
65614;BME280;52283;49.292;10.572;2023-07-31T07:40:20;96373.31;;;18.25;90.48
65614;BME280;52283;49.292;10.572;2023-07-31T07:42:49;96375.41;;;18.24;89.17
65614;BME280;52283;49.292;10.572;2023-07-31T07:45:16;96377.47;;;18.24;90.73
65614;BME280;52283;49.292;10.572;2023-07-31T07:47:42;96370.13;;;18.28;89.88
65614;BME280;52283;49.292;10.572;2023-07-31T07:50:09;96369.63;;;18.38;89.83
65614;BME280;52283;49.292;10.572;2023-07-31T07:52:36;96363.59;;;18.77;88.97
65614;BME280;52283;49.292;10.572;2023-07-31T07:55:03;96364.81;;;18.53;88.75
65614;BME280;52283;49.292;10.572;2023-07-31T07:57:29;96364.94;;;18.48;88.87
65614;BME280;52283;49.292;10.572;2023-07-31T07:59:57;96359.84;;;18.46;89.70
65614;BME280;52283;49.292;10.572;2023-07-31T08:02:24;96359.16;;;18.61;87.95
65614;BME280;52283;49.292;10.572;2023-07-31T08:04:50;96358.16;;;18.51;88.41
65614;BME280;52283;49.292;10.572;2023-07-31T08:07:17;96368.25;;;18.31;88.67
65614;BME280;52283;49.292;10.572;2023-07-31T08:09:43;96356.59;;;18.35;89.04
65614;BME280;52283;49.292;10.572;2023-07-31T08:12:10;96362.09;;;18.40;89.36
65614;BME280;52283;49.292;10.572;2023-07-31T08:14:36;96358.78;;;18.57;87.95
65614;BME280;52283;49.292;10.572;2023-07-31T08:17:04;96350.78;;;18.84;87.50
65614;BME280;52283;49.292;10.572;2023-07-31T08:19:31;96349.69;;;19.02;85.93
65614;BME280;52283;49.292;10.572;2023-07-31T08:21:57;96333.28;;;19.24;84.27
65614;BME280;52283;49.292;10.572;2023-07-31T08:24:23;96332.75;;;19.63;83.04
65614;BME280;52283;49.292;10.572;2023-07-31T08:26:50;96345.19;;;19.91;81.96
65614;BME280;52283;49.292;10.572;2023-07-31T08:29:16;96339.94;;;19.72;81.82
65614;BME280;52283;49.292;10.572;2023-07-31T08:31:43;96336.88;;;19.77;81.46
65614;BME280;52283;49.292;10.572;2023-07-31T08:34:11;96326.28;;;19.32;83.04
65614;BME280;52283;49.292;10.572;2023-07-31T08:36:37;96325.75;;;19.41;83.92
65614;BME280;52283;49.292;10.572;2023-07-31T08:39:04;96331.44;;;19.64;82.45
65614;BME280;52283;49.292;10.572;2023-07-31T08:41:30;96320.47;;;19.61;82.14
65614;BME280;52283;49.292;10.572;2023-07-31T08:43:57;96303.41;;;19.91;80.22
65614;BME280;52283;49.292;10.572;2023-07-31T08:46:24;96319.66;;;19.07;84.24
65614;BME280;52283;49.292;10.572;2023-07-31T08:48:51;96322.00;;;19.62;82.25
65614;BME280;52283;49.292;10.572;2023-07-31T08:51:21;96313.09;;;19.42;82.46
65614;BME280;52283;49.292;10.572;2023-07-31T08:53:47;96318.00;;;19.42;85.00
65614;BME280;52283;49.292;10.572;2023-07-31T08:56:14;96305.44;;;20.21;80.12
65614;BME280;52283;49.292;10.572;2023-07-31T08:58:43;96306.94;;;20.15;78.97
65614;BME280;52283;49.292;10.572;2023-07-31T09:01:10;96311.97;;;20.39;80.19
65614;BME280;52283;49.292;10.572;2023-07-31T09:03:38;96311.22;;;21.11;76.28
65614;BME280;52283;49.292;10.572;2023-07-31T09:06:06;96320.41;;;19.99;79.38
65614;BME280;52283;49.292;10.572;2023-07-31T09:08:35;96307.06;;;19.61;80.50
65614;BME280;52283;49.292;10.572;2023-07-31T09:11:03;96308.16;;;19.89;80.87
65614;BME280;52283;49.292;10.572;2023-07-31T09:13:31;96311.75;;;19.82;81.24
65614;BME280;52283;49.292;10.572;2023-07-31T09:15:58;96299.03;;;20.61;77.58
65614;BME280;52283;49.292;10.572;2023-07-31T09:18:24;96303.34;;;20.69;75.95
65614;BME280;52283;49.292;10.572;2023-07-31T09:21:01;96293.63;;;20.48;77.72
65614;BME280;52283;49.292;10.572;2023-07-31T09:23:41;96299.50;;;20.34;80.14
65614;BME280;52283;49.292;10.572;2023-07-31T09:26:08;96305.16;;;20.50;79.99
65614;BME280;52283;49.292;10.572;2023-07-31T09:28:34;96304.53;;;19.96;79.63
65614;BME280;52283;49.292;10.572;2023-07-31T09:31:01;96305.44;;;20.21;78.63
65614;BME280;52283;49.292;10.572;2023-07-31T09:33:27;96295.97;;;20.66;76.33
65614;BME280;52283;49.292;10.572;2023-07-31T09:35:54;96298.41;;;20.70;75.10
65614;BME280;52283;49.292;10.572;2023-07-31T09:38:30;96296.16;;;20.68;74.76
65614;BME280;52283;49.292;10.572;2023-07-31T09:40:59;96297.41;;;20.83;75.64
65614;BME280;52283;49.292;10.572;2023-07-31T09:43:53;96287.88;;;20.63;76.15
65614;BME280;52283;49.292;10.572;2023-07-31T09:46:20;96290.41;;;20.44;76.65
65614;BME280;52283;49.292;10.572;2023-07-31T09:48:47;96285.22;;;20.09;76.54
65614;BME280;52283;49.292;10.572;2023-07-31T09:51:13;96281.00;;;20.26;77.43
65614;BME280;52283;49.292;10.572;2023-07-31T09:53:40;96278.94;;;20.19;76.86
65614;BME280;52283;49.292;10.572;2023-07-31T09:56:08;96273.16;;;19.94;76.57
65614;BME280;52283;49.292;10.572;2023-07-31T09:58:34;96268.59;;;20.06;76.38
65614;BME280;52283;49.292;10.572;2023-07-31T10:01:02;96268.47;;;19.81;77.25
65614;BME280;52283;49.292;10.572;2023-07-31T10:03:29;96267.88;;;20.38;75.67
65614;BME280;52283;49.292;10.572;2023-07-31T10:05:57;96256.22;;;20.66;72.23
65614;BME280;52283;49.292;10.572;2023-07-31T10:08:27;96259.03;;;20.99;69.50
65614;BME280;52283;49.292;10.572;2023-07-31T10:10:58;96238.19;;;20.39;72.32
65614;BME280;52283;49.292;10.572;2023-07-31T10:13:28;96238.00;;;20.45;73.65
65614;BME280;52283;49.292;10.572;2023-07-31T10:15:58;96231.56;;;20.77;72.43
65614;BME280;52283;49.292;10.572;2023-07-31T10:18:26;96233.03;;;20.53;74.34
65614;BME280;52283;49.292;10.572;2023-07-31T10:20:54;96220.03;;;21.67;70.50
65614;BME280;52283;49.292;10.572;2023-07-31T10:23:22;96198.25;;;21.96;67.07
65614;BME280;52283;49.292;10.572;2023-07-31T10:25:49;96201.63;;;21.68;67.40
65614;BME280;52283;49.292;10.572;2023-07-31T10:28:20;96209.88;;;21.14;68.48
65614;BME280;52283;49.292;10.572;2023-07-31T10:30:49;96208.03;;;21.34;68.59
65614;BME280;52283;49.292;10.572;2023-07-31T10:33:17;96206.34;;;21.06;68.48
65614;BME280;52283;49.292;10.572;2023-07-31T10:35:44;96208.63;;;20.50;71.21
65614;BME280;52283;49.292;10.572;2023-07-31T10:38:13;96213.53;;;20.82;70.53
65614;BME280;52283;49.292;10.572;2023-07-31T10:40:39;96220.50;;;20.88;71.59
65614;BME280;52283;49.292;10.572;2023-07-31T10:43:06;96210.56;;;20.97;69.65
65614;BME280;52283;49.292;10.572;2023-07-31T10:45:35;96213.53;;;20.82;71.24
65614;BME280;52283;49.292;10.572;2023-07-31T10:48:04;96202.97;;;20.99;71.40
65614;BME280;52283;49.292;10.572;2023-07-31T10:50:32;96189.06;;;21.11;69.21
65614;BME280;52283;49.292;10.572;2023-07-31T10:53:02;96191.41;;;21.05;70.54
65614;BME280;52283;49.292;10.572;2023-07-31T10:55:32;96183.09;;;20.75;70.18
65614;BME280;52283;49.292;10.572;2023-07-31T10:58:05;96180.75;;;20.88;69.70
65614;BME280;52283;49.292;10.572;2023-07-31T11:00:32;96176.09;;;20.76;71.14
65614;BME280;52283;49.292;10.572;2023-07-31T11:03:04;96185.72;;;21.30;70.76
65614;BME280;52283;49.292;10.572;2023-07-31T11:05:49;96186.75;;;20.92;69.20
65614;BME280;52283;49.292;10.572;2023-07-31T11:08:18;96184.59;;;21.00;69.21
65614;BME280;52283;49.292;10.572;2023-07-31T11:10:46;96199.16;;;21.05;69.90
65614;BME280;52283;49.292;10.572;2023-07-31T11:13:13;96172.38;;;20.90;67.16
65614;BME280;52283;49.292;10.572;2023-07-31T11:15:40;96161.78;;;20.66;66.87
65614;BME280;52283;49.292;10.572;2023-07-31T11:18:08;96165.84;;;20.55;66.12
65614;BME280;52283;49.292;10.572;2023-07-31T11:20:36;96173.94;;;20.59;68.06
65614;BME280;52283;49.292;10.572;2023-07-31T11:23:06;96171.06;;;20.66;68.74
65614;BME280;52283;49.292;10.572;2023-07-31T11:25:33;96185.75;;;20.48;70.30
65614;BME280;52283;49.292;10.572;2023-07-31T11:28:03;96194.69;;;20.69;70.64
65614;BME280;52283;49.292;10.572;2023-07-31T11:30:30;96189.59;;;20.67;70.57
65614;BME280;52283;49.292;10.572;2023-07-31T11:32:56;96200.91;;;20.75;69.31
65614;BME280;52283;49.292;10.572;2023-07-31T11:35:24;96195.44;;;20.69;69.40
65614;BME280;52283;49.292;10.572;2023-07-31T11:37:51;96193.94;;;20.93;69.86
65614;BME280;52283;49.292;10.572;2023-07-31T11:40:18;96183.34;;;20.94;68.26
65614;BME280;52283;49.292;10.572;2023-07-31T11:42:45;96195.72;;;20.81;68.36
65614;BME280;52283;49.292;10.572;2023-07-31T11:45:11;96195.97;;;21.00;68.11
65614;BME280;52283;49.292;10.572;2023-07-31T11:47:38;96194.25;;;21.05;68.31
65614;BME280;52283;49.292;10.572;2023-07-31T11:50:06;96192.34;;;21.50;68.52
65614;BME280;52283;49.292;10.572;2023-07-31T11:52:39;96190.88;;;21.41;67.96
65614;BME280;52283;49.292;10.572;2023-07-31T11:55:08;96187.22;;;21.06;68.74
65614;BME280;52283;49.292;10.572;2023-07-31T11:57:37;96188.38;;;21.03;68.99
65614;BME280;52283;49.292;10.572;2023-07-31T12:00:06;96190.88;;;20.99;69.37
65614;BME280;52283;49.292;10.572;2023-07-31T12:02:34;96173.09;;;21.41;67.30
65614;BME280;52283;49.292;10.572;2023-07-31T12:05:01;96167.41;;;22.10;65.54
65614;BME280;52283;49.292;10.572;2023-07-31T12:07:43;96160.59;;;22.49;62.79
65614;BME280;52283;49.292;10.572;2023-07-31T12:10:09;96162.31;;;21.74;62.20
65614;BME280;52283;49.292;10.572;2023-07-31T12:12:36;96146.59;;;22.44;61.00
65614;BME280;52283;49.292;10.572;2023-07-31T12:15:03;96146.50;;;22.25;60.27
65614;BME280;52283;49.292;10.572;2023-07-31T12:17:39;96144.78;;;22.39;60.24
65614;BME280;52283;49.292;10.572;2023-07-31T12:20:06;96134.97;;;22.49;60.37
65614;BME280;52283;49.292;10.572;2023-07-31T12:22:33;96140.03;;;22.14;61.67
65614;BME280;52283;49.292;10.572;2023-07-31T12:25:15;96156.53;;;21.81;63.01
65614;BME280;52283;49.292;10.572;2023-07-31T12:27:44;96145.84;;;21.55;64.63
65614;BME280;52283;49.292;10.572;2023-07-31T12:30:26;96129.88;;;21.25;63.90
65614;BME280;52283;49.292;10.572;2023-07-31T12:32:52;96138.00;;;21.46;64.34
65614;BME280;52283;49.292;10.572;2023-07-31T12:35:19;96117.94;;;21.01;65.79
65614;BME280;52283;49.292;10.572;2023-07-31T12:37:45;96123.84;;;20.96;65.92
65614;BME280;52283;49.292;10.572;2023-07-31T12:40:13;96109.59;;;21.04;65.50
65614;BME280;52283;49.292;10.572;2023-07-31T12:42:40;96131.66;;;21.13;66.61
65614;BME280;52283;49.292;10.572;2023-07-31T12:45:07;96133.38;;;21.33;66.41
65614;BME280;52283;49.292;10.572;2023-07-31T12:47:34;96107.81;;;21.33;65.66